createdAt,value
2022-12-17T00:02:12.346Z,23.70
2022-12-17T00:07:33.083Z,23.40
2022-12-17T00:12:53.807Z,23.90
2022-12-17T00:18:24.821Z,23.20
2022-12-17T00:23:45.571Z,24.00
2022-12-17T00:29:06.259Z,22.90
2022-12-17T00:34:26.849Z,23.20
2022-12-17T00:39:47.651Z,23.70
2022-12-17T00:45:08.386Z,23.80
2022-12-17T00:50:29.350Z,23.30
2022-12-17T00:55:51.092Z,22.70
2022-12-17T01:01:17.280Z,23.30
2022-12-17T01:06:38.321Z,23.60
2022-12-17T01:11:58.902Z,23.30
2022-12-17T01:17:19.726Z,22.50
2022-12-17T01:22:42.087Z,23.20
2022-12-17T01:28:05.832Z,22.90
2022-12-17T01:33:28.606Z,22.90
2022-12-17T01:38:49.066Z,23.00
2022-12-17T01:44:09.702Z,23.50
2022-12-17T01:49:32.237Z,23.40
2022-12-17T01:54:53.151Z,23.60
2022-12-17T02:00:20.742Z,22.50
2022-12-17T02:05:59.428Z,23.00
2022-12-17T02:11:59.139Z,23.10
2022-12-17T02:17:25.679Z,23.50
2022-12-17T02:23:03.786Z,23.50
2022-12-17T02:28:25.233Z,23.90
2022-12-17T02:33:47.645Z,23.00
2022-12-17T02:39:09.011Z,23.20
2022-12-17T02:44:35.341Z,23.60
2022-12-17T02:49:56.261Z,22.60
2022-12-17T02:55:17.085Z,22.40
2022-12-17T03:00:38.061Z,22.40
2022-12-17T03:05:58.929Z,22.50
2022-12-17T03:11:19.844Z,23.20
2022-12-17T03:16:40.700Z,23.50
2022-12-17T03:22:02.394Z,23.30
2022-12-17T03:27:23.196Z,23.30
2022-12-17T03:32:43.811Z,22.20
2022-12-17T03:38:04.305Z,23.20
2022-12-17T03:43:26.446Z,23.10
2022-12-17T03:48:46.955Z,22.40
2022-12-17T03:54:07.483Z,21.90
2022-12-17T03:59:28.775Z,22.00
2022-12-17T04:04:49.652Z,23.20
2022-12-17T04:10:10.275Z,23.10
2022-12-17T04:15:30.960Z,22.00
2022-12-17T04:20:51.831Z,23.00
2022-12-17T04:26:12.390Z,23.10
2022-12-17T04:31:33.091Z,22.10
2022-12-17T04:36:54.055Z,22.70
2022-12-17T04:42:14.627Z,22.40
2022-12-17T04:47:35.309Z,22.70
2022-12-17T04:52:56.207Z,23.20
2022-12-17T04:58:24.317Z,22.60
2022-12-17T05:03:45.074Z,22.70
2022-12-17T05:09:06.074Z,22.80
2022-12-17T05:14:26.559Z,22.10
2022-12-17T05:19:47.425Z,23.10
2022-12-17T05:25:08.137Z,22.20
2022-12-17T05:30:29.119Z,22.10
2022-12-17T05:35:49.674Z,22.90
2022-12-17T05:41:10.384Z,23.00
2022-12-17T05:46:30.881Z,22.50
2022-12-17T05:51:51.795Z,22.00
2022-12-17T05:57:13.150Z,21.70
2022-12-17T06:02:34.240Z,22.40
2022-12-17T06:07:55.249Z,22.80
2022-12-17T06:13:16.263Z,22.80
2022-12-17T06:18:36.876Z,21.90
2022-12-17T06:23:57.671Z,22.60
2022-12-17T06:29:18.391Z,22.30
2022-12-17T06:34:39.190Z,22.00
2022-12-17T06:39:59.727Z,22.70
2022-12-17T06:45:20.595Z,22.10
2022-12-17T06:50:41.403Z,22.20
2022-12-17T06:56:02.276Z,23.10
2022-12-17T07:01:22.868Z,22.70
2022-12-17T07:07:03.423Z,22.40
2022-12-17T07:12:24.444Z,22.40
2022-12-17T07:17:45.300Z,23.50
2022-12-17T07:23:06.107Z,23.60
2022-12-17T07:28:26.946Z,24.00
2022-12-17T07:33:47.514Z,23.20
2022-12-17T07:39:08.107Z,23.50
2022-12-17T07:44:28.802Z,23.20
2022-12-17T07:49:49.357Z,23.50
2022-12-17T07:55:14.209Z,23.70
2022-12-17T08:00:37.531Z,23.40
2022-12-17T08:05:58.144Z,23.80
2022-12-17T08:11:18.889Z,23.80
2022-12-17T08:16:39.517Z,23.60
2022-12-17T08:27:21.542Z,24.70
2022-12-17T08:32:42.764Z,24.20
2022-12-17T08:38:03.555Z,24.20
2022-12-17T08:43:24.678Z,25.10
2022-12-17T08:48:45.414Z,25.00
2022-12-17T08:54:06.254Z,24.60
2022-12-17T08:59:26.921Z,24.60
2022-12-17T09:04:47.848Z,25.60
2022-12-17T09:10:08.663Z,24.70
2022-12-17T09:15:29.175Z,25.50
2022-12-17T09:20:49.675Z,24.80
2022-12-17T09:26:16.439Z,25.30
2022-12-17T09:31:37.818Z,25.50
2022-12-17T09:36:58.493Z,25.80
2022-12-17T09:42:22.336Z,25.10
2022-12-17T09:48:12.974Z,26.90
2022-12-17T09:53:41.256Z,26.00
2022-12-17T09:59:01.990Z,26.40
2022-12-17T10:04:25.650Z,25.50
2022-12-17T10:09:48.612Z,25.40
2022-12-17T10:15:09.431Z,26.20
2022-12-17T10:21:02.791Z,26.00
2022-12-17T10:26:25.290Z,25.70
2022-12-17T10:31:48.713Z,26.30
2022-12-17T10:37:11.576Z,26.20
2022-12-17T10:42:49.491Z,26.40
2022-12-17T10:48:10.290Z,26.10
2022-12-17T10:53:41.070Z,26.30
2022-12-17T10:59:05.193Z,26.20
2022-12-17T11:04:55.652Z,26.40
2022-12-17T11:10:18.984Z,26.50
2022-12-17T11:15:56.778Z,26.30
2022-12-17T11:21:23.578Z,26.20
2022-12-17T11:26:46.839Z,26.00
2022-12-17T11:32:29.118Z,25.40
2022-12-17T11:38:02.418Z,26.20
2022-12-17T11:44:15.473Z,25.70
2022-12-17T11:50:05.947Z,26.50
2022-12-17T11:55:35.485Z,26.30
2022-12-17T12:01:09.905Z,26.40
2022-12-17T12:07:02.660Z,26.80
2022-12-17T12:12:52.830Z,26.60
2022-12-17T12:18:24.399Z,25.90
2022-12-17T12:24:19.102Z,26.20
2022-12-17T12:30:20.533Z,26.30
2022-12-17T12:35:43.976Z,26.50
2022-12-17T12:41:32.948Z,26.90
2022-12-17T12:47:07.360Z,26.50
2022-12-17T12:52:32.981Z,26.40
2022-12-17T12:58:18.619Z,26.40
2022-12-17T13:04:00.008Z,25.70
2022-12-17T13:09:17.934Z,25.30
2022-12-17T13:14:29.657Z,26.00
2022-12-17T13:19:31.853Z,26.80
2022-12-17T13:24:33.961Z,25.70
2022-12-17T13:29:38.091Z,25.60
2022-12-17T13:35:10.307Z,26.20
2022-12-17T13:40:38.182Z,27.00
2022-12-17T13:45:43.302Z,27.10
2022-12-17T13:51:00.448Z,26.30
2022-12-17T13:56:02.788Z,26.90
2022-12-17T14:01:11.024Z,25.70
2022-12-17T14:06:13.357Z,25.50
2022-12-17T14:11:34.563Z,25.60
2022-12-17T14:16:37.304Z,26.20
2022-12-17T14:21:41.114Z,26.80
2022-12-17T14:26:55.986Z,25.60
2022-12-17T14:32:03.900Z,25.70
2022-12-17T14:37:06.066Z,26.10
2022-12-17T14:42:26.008Z,26.80
2022-12-17T14:47:31.252Z,25.80
2022-12-17T14:52:42.483Z,25.80
2022-12-17T14:57:44.742Z,26.50
2022-12-17T15:02:54.624Z,25.80
2022-12-17T15:07:57.212Z,26.90
2022-12-17T15:12:59.508Z,25.50
2022-12-17T15:18:01.595Z,26.20
2022-12-17T15:23:03.918Z,26.00
2022-12-17T15:28:06.016Z,26.30
2022-12-17T15:33:08.360Z,25.30
2022-12-17T15:38:12.209Z,26.40
2022-12-17T15:43:15.837Z,26.10
2022-12-17T15:48:23.219Z,25.50
2022-12-17T15:53:25.312Z,27.00
2022-12-17T15:58:27.802Z,25.90
2022-12-17T16:03:29.946Z,26.60
2022-12-17T16:14:42.020Z,25.70
2022-12-17T16:19:44.002Z,26.40
2022-12-17T16:24:46.209Z,26.30
2022-12-17T16:29:48.424Z,26.30
2022-12-17T16:34:50.509Z,26.70
2022-12-17T16:39:58.110Z,26.20
2022-12-17T16:45:02.175Z,26.40
2022-12-17T16:50:05.790Z,25.70
2022-12-17T16:55:08.404Z,26.80
2022-12-17T17:00:11.403Z,26.80
2022-12-17T17:05:13.561Z,25.60
2022-12-17T17:10:15.721Z,26.00
2022-12-17T17:15:18.117Z,26.80
2022-12-17T17:20:20.581Z,26.70
2022-12-17T17:25:22.813Z,27.00
2022-12-17T17:30:24.871Z,26.00
2022-12-17T17:35:26.906Z,26.80
2022-12-17T17:40:28.972Z,27.10
2022-12-17T17:45:31.133Z,26.70
2022-12-17T17:50:33.224Z,26.40
2022-12-17T17:55:36.033Z,26.50
2022-12-17T18:00:38.123Z,27.20
2022-12-17T18:05:42.367Z,25.90
2022-12-17T18:10:55.912Z,26.30
2022-12-17T18:16:01.729Z,26.80
2022-12-17T18:21:09.575Z,27.10
2022-12-17T18:26:21.293Z,27.50
2022-12-17T18:31:25.684Z,26.60
2022-12-17T18:36:37.255Z,27.00
2022-12-17T18:41:58.395Z,27.60
2022-12-17T18:47:00.589Z,26.50
2022-12-17T18:52:03.076Z,26.40
2022-12-17T18:57:05.192Z,26.60
2022-12-17T19:02:11.640Z,26.50
2022-12-17T19:07:14.583Z,26.40
2022-12-17T19:12:16.710Z,26.70
2022-12-17T19:17:18.827Z,26.10
2022-12-17T19:22:21.049Z,26.40
2022-12-17T19:27:23.241Z,26.30
2022-12-17T19:32:25.533Z,27.10
2022-12-17T19:37:27.730Z,26.30
2022-12-17T19:42:36.821Z,26.30
2022-12-17T19:47:39.559Z,26.30
2022-12-17T19:52:41.773Z,26.20
2022-12-17T19:57:43.881Z,26.20
2022-12-17T20:02:46.118Z,25.70
2022-12-17T20:07:48.235Z,26.00
2022-12-17T20:12:50.310Z,26.50
2022-12-17T20:17:52.403Z,26.30
2022-12-17T20:22:54.462Z,26.90
2022-12-17T20:27:56.711Z,26.60
2022-12-17T20:32:58.792Z,26.70
2022-12-17T20:38:00.916Z,26.20
2022-12-17T20:43:03.792Z,25.80
2022-12-17T20:48:05.994Z,26.40
2022-12-17T20:53:08.151Z,26.30
2022-12-17T20:58:10.214Z,25.90
2022-12-17T21:03:12.434Z,26.50
2022-12-17T21:08:14.660Z,27.40
2022-12-17T21:13:29.035Z,26.50
2022-12-17T21:18:32.169Z,26.80
2022-12-17T21:23:35.651Z,26.40
2022-12-17T21:28:39.603Z,25.80
2022-12-17T21:33:42.305Z,25.90
2022-12-17T21:38:45.620Z,26.90
2022-12-17T21:43:48.224Z,26.20
2022-12-17T21:48:51.839Z,27.60
2022-12-17T21:53:55.892Z,26.90
2022-12-17T21:59:00.313Z,27.60
2022-12-17T22:04:04.450Z,27.40
2022-12-17T22:09:15.277Z,27.00
2022-12-17T22:14:29.992Z,27.80
2022-12-17T22:19:33.620Z,27.10
2022-12-17T22:24:36.461Z,27.10
2022-12-17T22:29:57.692Z,27.20
2022-12-17T22:36:05.530Z,27.20
2022-12-17T22:44:30.354Z,26.90
2022-12-17T22:45:44.928Z,27.40
2022-12-17T22:51:04.755Z,27.50
2022-12-17T22:56:22.006Z,27.00
2022-12-17T23:01:33.313Z,26.90
2022-12-17T23:06:35.515Z,27.00
2022-12-17T23:11:37.662Z,27.40
2022-12-17T23:16:40.107Z,27.70
2022-12-17T23:21:42.396Z,27.30
2022-12-17T23:26:44.589Z,27.10
2022-12-17T23:31:47.321Z,27.60
2022-12-17T23:36:49.568Z,27.40
2022-12-17T23:41:54.237Z,27.70
2022-12-17T23:46:56.471Z,27.10
2022-12-17T23:51:58.622Z,27.40
2022-12-17T23:57:00.983Z,27.10
